createdAt,value
2022-10-23T00:01:51.348Z,18.20
2022-10-23T00:04:21.043Z,19.90
2022-10-23T00:06:49.166Z,19.10
2022-10-23T00:09:18.432Z,18.27
2022-10-23T00:11:48.071Z,17.90
2022-10-23T00:14:16.773Z,18.57
2022-10-23T00:16:44.274Z,19.27
2022-10-23T00:19:11.806Z,20.57
2022-10-23T00:21:39.614Z,18.53
2022-10-23T00:26:38.538Z,19.87
2022-10-23T00:29:06.024Z,19.03
2022-10-23T00:31:33.628Z,19.57
2022-10-23T00:34:01.366Z,19.47
2022-10-23T00:36:29.053Z,21.07
2022-10-23T00:38:56.632Z,19.83
2022-10-23T00:41:28.949Z,20.23
2022-10-23T00:44:35.694Z,21.13
2022-10-23T00:47:03.071Z,19.07
2022-10-23T00:49:42.777Z,20.00
2022-10-23T00:52:28.251Z,19.60
2022-10-23T00:54:55.935Z,20.35
2022-10-23T00:57:23.461Z,21.10
2022-10-23T00:59:51.488Z,20.77
2022-10-23T01:02:18.985Z,19.77
2022-10-23T01:04:46.536Z,22.10
2022-10-23T01:07:37.040Z,20.33
2022-10-23T01:10:31.770Z,19.13
2022-10-23T01:13:38.609Z,19.07
2022-10-23T01:16:34.088Z,20.70
2022-10-23T01:19:28.115Z,20.90
2022-10-23T01:22:11.913Z,21.43
2022-10-23T01:24:56.258Z,21.20
2022-10-23T01:27:32.629Z,21.13
2022-10-23T01:30:24.006Z,21.27
2022-10-23T01:33:16.313Z,22.47
2022-10-23T01:35:52.713Z,21.33
2022-10-23T01:38:42.711Z,20.60
2022-10-23T01:41:16.730Z,23.13
2022-10-23T01:43:54.184Z,24.13
2022-10-23T01:46:23.848Z,20.77
2022-10-23T01:48:55.023Z,24.00
2022-10-23T01:51:26.726Z,23.97
2022-10-23T01:54:00.536Z,24.77
2022-10-23T01:56:32.143Z,22.53
2022-10-23T01:59:03.648Z,24.50
2022-10-23T02:01:33.236Z,22.20
2022-10-23T02:04:03.376Z,25.70
2022-10-23T02:06:30.791Z,24.50
2022-10-23T02:08:58.376Z,27.07
2022-10-23T02:11:25.694Z,25.83
2022-10-23T02:14:20.526Z,26.73
2022-10-23T02:16:59.420Z,24.87
2022-10-23T02:19:33.398Z,26.10
2022-10-23T02:22:40.494Z,24.77
2022-10-23T02:25:15.523Z,26.37
2022-10-23T02:27:47.219Z,24.23
2022-10-23T02:30:18.237Z,25.87
2022-10-23T02:32:49.087Z,26.20
2022-10-23T02:35:17.877Z,25.33
2022-10-23T02:37:52.202Z,24.80
2022-10-23T02:40:19.717Z,27.65
2022-10-23T02:42:57.106Z,26.53
2022-10-23T02:45:33.716Z,27.03
2022-10-23T02:48:23.984Z,25.17
2022-10-23T02:51:15.505Z,24.17
2022-10-23T02:54:09.311Z,22.33
2022-10-23T02:57:00.310Z,23.57
2022-10-23T02:59:43.120Z,24.80
2022-10-23T03:02:21.029Z,23.47
2022-10-23T03:04:48.956Z,21.63
2022-10-23T03:07:16.420Z,21.83
2022-10-23T03:09:43.825Z,21.80
2022-10-23T03:12:11.220Z,20.73
2022-10-23T03:14:38.557Z,21.17
2022-10-23T03:17:07.803Z,22.27
2022-10-23T03:19:35.260Z,20.27
2022-10-23T03:22:02.695Z,19.50
2022-10-23T03:24:30.100Z,20.70
2022-10-23T03:26:57.570Z,19.30
2022-10-23T03:29:25.063Z,19.50
2022-10-23T03:31:55.195Z,20.10
2022-10-23T03:34:22.732Z,19.20
2022-10-23T03:36:50.137Z,19.77
2022-10-23T03:39:17.660Z,18.07
2022-10-23T03:41:45.008Z,20.03
2022-10-23T03:44:12.462Z,18.93
2022-10-23T03:46:40.761Z,20.00
2022-10-23T03:49:08.159Z,19.87
2022-10-23T03:51:35.573Z,18.77
2022-10-23T03:54:03.087Z,18.93
2022-10-23T03:56:30.459Z,19.33
2022-10-23T03:58:57.868Z,20.13
2022-10-23T04:01:25.117Z,17.87
2022-10-23T04:03:52.977Z,18.60
2022-10-23T04:06:20.374Z,18.00
2022-10-23T04:08:47.785Z,19.43
2022-10-23T04:11:15.311Z,17.87
2022-10-23T04:13:42.799Z,17.53
2022-10-23T04:16:10.151Z,19.13
2022-10-23T04:18:37.490Z,19.60
2022-10-23T04:21:04.877Z,20.20
2022-10-23T04:23:32.272Z,19.73
2022-10-23T04:25:59.724Z,20.57
2022-10-23T04:28:27.331Z,19.90
2022-10-23T04:30:55.051Z,18.77
2022-10-23T04:33:22.579Z,18.90
2022-10-23T04:35:50.095Z,18.40
2022-10-23T04:38:17.459Z,19.13
2022-10-23T04:40:45.000Z,20.23
2022-10-23T04:43:12.348Z,18.83
2022-10-23T04:45:39.867Z,18.13
2022-10-23T04:48:07.349Z,17.47
2022-10-23T04:50:34.712Z,18.87
2022-10-23T04:53:02.057Z,19.43
2022-10-23T04:55:29.520Z,20.77
2022-10-23T04:57:56.943Z,21.87
2022-10-23T05:00:24.473Z,21.00
2022-10-23T05:02:55.551Z,20.50
2022-10-23T05:05:22.911Z,20.27
2022-10-23T05:07:50.372Z,21.90
2022-10-23T05:10:17.842Z,18.87
2022-10-23T05:12:45.033Z,21.27
2022-10-23T05:15:12.559Z,18.13
2022-10-23T05:17:43.179Z,19.57
2022-10-23T05:20:15.723Z,20.63
2022-10-23T05:22:46.806Z,19.10
2022-10-23T05:25:15.947Z,19.93
2022-10-23T05:27:43.614Z,22.43
2022-10-23T05:30:14.387Z,23.67
2022-10-23T05:32:42.198Z,20.83
2022-10-23T05:35:14.257Z,22.80
2022-10-23T05:37:44.091Z,19.43
2022-10-23T05:40:12.105Z,21.00
2022-10-23T05:42:41.556Z,22.73
2022-10-23T05:45:09.731Z,22.03
2022-10-23T05:47:40.818Z,21.80
2022-10-23T05:50:08.364Z,19.67
2022-10-23T05:52:35.737Z,20.30
2022-10-23T05:55:03.281Z,21.40
2022-10-23T05:57:33.929Z,19.53
2022-10-23T06:00:01.526Z,21.47
2022-10-23T06:02:29.097Z,21.57
2022-10-23T06:04:56.542Z,21.87
2022-10-23T06:07:30.115Z,22.30
2022-10-23T06:10:00.196Z,24.73
2022-10-23T06:12:27.660Z,25.10
2022-10-23T06:14:55.168Z,25.73
2022-10-23T06:17:23.049Z,25.53
2022-10-23T06:19:50.589Z,24.93
2022-10-23T06:22:18.047Z,22.90
2022-10-23T06:24:48.200Z,23.70
2022-10-23T06:27:15.705Z,22.87
2022-10-23T06:29:43.412Z,23.47
2022-10-23T06:32:11.055Z,23.83
2022-10-23T06:34:39.618Z,22.23
2022-10-23T06:37:07.054Z,26.30
2022-10-23T06:39:36.183Z,25.47
2022-10-23T06:42:04.135Z,22.57
2022-10-23T06:44:31.774Z,24.10
2022-10-23T06:47:00.866Z,24.93
2022-10-23T06:49:28.491Z,23.33
2022-10-23T06:51:56.098Z,24.10
2022-10-23T06:54:23.772Z,24.23
2022-10-23T06:56:51.800Z,25.47
2022-10-23T06:59:20.011Z,26.30
2022-10-23T07:01:48.208Z,25.30
2022-10-23T07:04:15.894Z,24.60
2022-10-23T07:06:46.312Z,22.93
2022-10-23T07:09:13.818Z,21.93
2022-10-23T07:11:41.418Z,22.97
2022-10-23T07:14:09.001Z,23.37
2022-10-23T07:16:36.396Z,23.73
2022-10-23T07:19:03.988Z,23.47
2022-10-23T07:21:34.786Z,22.57
2022-10-23T07:24:02.857Z,23.53
2022-10-23T07:26:30.500Z,20.93
2022-10-23T07:28:58.198Z,21.93
2022-10-23T07:31:28.177Z,23.20
2022-10-23T07:33:56.212Z,22.33
2022-10-23T07:36:23.998Z,22.57
2022-10-23T07:38:52.164Z,21.00
2022-10-23T07:41:19.966Z,21.63
2022-10-23T07:43:47.481Z,22.27
2022-10-23T07:46:15.043Z,23.33
2022-10-23T07:48:42.533Z,22.23
2022-10-23T07:51:14.141Z,23.17
2022-10-23T07:53:44.179Z,22.53
2022-10-23T07:56:37.074Z,24.73
2022-10-23T07:59:19.452Z,23.80
2022-10-23T08:01:55.073Z,24.37
2022-10-23T08:04:37.237Z,24.47
2022-10-23T08:08:07.557Z,24.53
2022-10-23T08:10:47.644Z,23.27
2022-10-23T08:13:15.262Z,29.70
2022-10-23T08:15:53.664Z,30.63
2022-10-23T08:18:55.037Z,27.00
2022-10-23T08:21:25.715Z,26.40
2022-10-23T08:23:55.500Z,24.00
2022-10-23T08:26:27.309Z,26.70
2022-10-23T08:28:55.023Z,26.20
2022-10-23T08:31:26.340Z,21.87
2022-10-23T08:33:59.332Z,16.07
2022-10-23T08:36:38.895Z,15.60
2022-10-23T08:39:07.488Z,15.60
2022-10-23T08:41:40.077Z,14.10
2022-10-23T08:44:39.887Z,13.60
2022-10-23T08:47:15.960Z,14.07
2022-10-23T08:50:06.973Z,12.43
2022-10-23T08:53:17.216Z,13.07
2022-10-23T08:55:49.954Z,11.40
2022-10-23T08:58:32.110Z,11.63
2022-10-23T09:00:59.895Z,10.07
2022-10-23T09:03:27.744Z,9.60
2022-10-23T09:06:15.796Z,9.03
2022-10-23T09:09:22.708Z,9.27
2022-10-23T09:12:14.092Z,10.30
2022-10-23T09:15:14.534Z,8.30
2022-10-23T09:17:43.938Z,9.87
2022-10-23T09:20:34.411Z,11.63
2022-10-23T09:23:07.985Z,10.63
2022-10-23T09:25:39.826Z,10.30
2022-10-23T09:28:07.619Z,9.10
2022-10-23T09:30:43.432Z,10.83
2022-10-23T09:33:18.482Z,10.43
2022-10-23T09:36:06.911Z,9.95
2022-10-23T09:38:54.913Z,9.10
2022-10-23T09:41:39.237Z,7.60
2022-10-23T09:44:28.092Z,9.07
2022-10-23T09:47:18.612Z,9.37
2022-10-23T09:49:49.881Z,9.77
2022-10-23T09:52:37.891Z,9.50
2022-10-23T09:55:21.543Z,9.43
2022-10-23T09:57:48.997Z,9.30
2022-10-23T10:00:46.774Z,8.67
2022-10-23T10:03:23.905Z,10.80
2022-10-23T10:05:58.521Z,8.83
2022-10-23T10:08:50.194Z,8.60
2022-10-23T10:11:42.805Z,9.60
2022-10-23T10:14:36.186Z,10.93
2022-10-23T10:17:27.411Z,8.77
2022-10-23T10:20:34.368Z,8.80
2022-10-23T10:23:41.279Z,6.90
2022-10-23T10:26:48.093Z,7.37
2022-10-23T10:29:47.133Z,7.70
2022-10-23T10:32:38.073Z,7.33
2022-10-23T10:35:38.390Z,6.67
2022-10-23T10:38:45.440Z,6.67
2022-10-23T10:41:37.810Z,6.93
2022-10-23T10:44:34.775Z,7.30
2022-10-23T10:47:30.368Z,7.30
2022-10-23T10:50:28.885Z,6.70
2022-10-23T10:53:35.679Z,6.30
2022-10-23T10:56:03.992Z,7.00
2022-10-23T10:58:58.835Z,7.03
2022-10-23T11:01:49.930Z,6.17
2022-10-23T11:04:44.838Z,7.03
2022-10-23T11:07:15.381Z,6.30
2022-10-23T11:09:43.674Z,7.07
2022-10-23T11:12:28.404Z,7.20
2022-10-23T11:14:56.783Z,5.93
2022-10-23T11:17:34.647Z,5.83
2022-10-23T11:20:40.867Z,6.27
2022-10-23T11:23:43.350Z,5.82
2022-10-23T11:26:52.072Z,6.17
2022-10-23T11:29:58.964Z,5.57
2022-10-23T11:33:09.324Z,5.87
2022-10-23T11:36:16.365Z,7.23
2022-10-23T11:38:48.839Z,5.97
2022-10-23T11:41:25.653Z,6.33
2022-10-23T11:44:15.213Z,5.97
2022-10-23T11:46:42.844Z,5.20
2022-10-23T11:49:21.491Z,4.83
2022-10-23T11:51:48.985Z,5.60
2022-10-23T11:54:36.014Z,4.60
2022-10-23T11:57:13.494Z,4.00
2022-10-23T11:59:53.646Z,4.30
2022-10-23T12:02:44.926Z,4.20
2022-10-23T12:05:58.194Z,4.70
2022-10-23T12:08:28.503Z,4.60
2022-10-23T12:10:56.350Z,4.63
2022-10-23T12:13:45.532Z,4.63
2022-10-23T12:16:16.093Z,5.13
2022-10-23T12:18:52.116Z,4.60
2022-10-23T12:21:24.344Z,4.73
2022-10-23T12:24:39.737Z,4.97
2022-10-23T12:27:33.115Z,5.47
2022-10-23T12:30:25.597Z,5.33
2022-10-23T12:33:32.542Z,5.70
2022-10-23T12:36:43.591Z,5.73
2022-10-23T12:39:28.275Z,4.47
2022-10-23T12:41:56.032Z,6.63
2022-10-23T12:44:25.501Z,4.53
2022-10-23T12:46:57.433Z,4.47
2022-10-23T12:49:27.340Z,8.17
2022-10-23T12:52:30.175Z,7.07
2022-10-23T12:55:00.797Z,5.20
2022-10-23T12:57:30.444Z,5.17
2022-10-23T13:00:10.447Z,6.53
2022-10-23T13:02:38.052Z,6.03
2022-10-23T13:05:11.187Z,7.00
2022-10-23T13:07:44.707Z,5.77
2022-10-23T13:10:15.604Z,5.37
2022-10-23T13:12:47.508Z,5.87
2022-10-23T13:15:36.200Z,5.93
2022-10-23T13:18:04.925Z,6.80
2022-10-23T13:20:35.617Z,5.87
2022-10-23T13:23:33.164Z,4.80
2022-10-23T13:26:24.647Z,5.00
2022-10-23T13:28:52.030Z,4.60
2022-10-23T13:31:38.962Z,5.40
2022-10-23T13:34:16.339Z,5.00
2022-10-23T13:36:56.386Z,7.80
2022-10-23T13:39:27.495Z,7.30
2022-10-23T13:41:55.030Z,5.47
2022-10-23T13:44:24.086Z,4.90
2022-10-23T13:46:52.315Z,4.33
2022-10-23T13:49:20.149Z,4.40
2022-10-23T13:55:33.687Z,4.80
2022-10-23T13:58:01.109Z,5.73
2022-10-23T14:00:28.824Z,4.33
2022-10-23T14:02:56.229Z,4.90
2022-10-23T14:05:23.722Z,6.97
2022-10-23T14:07:51.088Z,4.77
2022-10-23T14:10:18.539Z,5.23
2022-10-23T14:12:46.176Z,5.20
2022-10-23T14:15:13.835Z,4.97
2022-10-23T14:17:41.219Z,4.83
2022-10-23T14:20:09.473Z,5.10
2022-10-23T14:22:37.256Z,5.30
2022-10-23T14:25:05.551Z,4.50
2022-10-23T14:27:33.100Z,5.00
2022-10-23T14:30:00.845Z,5.07
2022-10-23T14:32:28.399Z,4.77
2022-10-23T14:34:56.068Z,4.37
2022-10-23T14:37:23.805Z,4.83
2022-10-23T14:39:51.289Z,4.63
2022-10-23T14:42:18.979Z,4.67
2022-10-23T14:44:46.307Z,3.63
2022-10-23T14:47:13.724Z,3.70
2022-10-23T14:49:41.430Z,4.43
2022-10-23T14:52:08.819Z,3.10
2022-10-23T14:54:36.619Z,4.03
2022-10-23T14:57:04.192Z,3.63
2022-10-23T14:59:31.589Z,4.77
2022-10-23T15:01:58.987Z,5.50
2022-10-23T15:04:26.286Z,4.80
2022-10-23T15:06:53.618Z,4.40
2022-10-23T15:09:20.964Z,4.70
2022-10-23T15:11:48.616Z,4.60
2022-10-23T15:14:15.962Z,5.07
2022-10-23T15:16:43.313Z,5.83
2022-10-23T15:19:15.403Z,5.80
2022-10-23T15:21:45.779Z,6.30
2022-10-23T15:24:13.172Z,6.73
2022-10-23T15:26:43.036Z,7.87
2022-10-23T15:29:11.294Z,6.67
2022-10-23T15:31:58.747Z,7.30
2022-10-23T15:34:27.988Z,8.77
2022-10-23T15:36:56.865Z,10.20
2022-10-23T15:39:26.939Z,12.27
2022-10-23T15:41:56.884Z,11.53
2022-10-23T15:44:26.400Z,10.20
2022-10-23T15:46:53.787Z,9.43
2022-10-23T15:49:21.186Z,9.10
2022-10-23T15:51:48.756Z,9.57
2022-10-23T15:54:19.196Z,9.27
2022-10-23T15:56:48.095Z,8.47
2022-10-23T15:59:15.735Z,9.37
2022-10-23T16:01:43.320Z,10.83
2022-10-23T16:04:11.399Z,10.30
2022-10-23T16:06:39.048Z,11.03
2022-10-23T16:09:06.492Z,10.57
2022-10-23T16:11:36.291Z,11.47
2022-10-23T16:14:04.347Z,10.50
2022-10-23T16:16:33.007Z,12.03
2022-10-23T16:19:01.851Z,12.43
2022-10-23T16:21:31.989Z,12.80
2022-10-23T16:24:00.556Z,13.10
2022-10-23T16:26:29.305Z,14.87
2022-10-23T16:28:58.417Z,15.70
2022-10-23T16:31:26.286Z,15.20
2022-10-23T16:33:54.393Z,14.57
2022-10-23T16:36:22.015Z,16.60
2022-10-23T16:38:49.441Z,17.70
2022-10-23T16:41:16.815Z,29.07
2022-10-23T16:43:44.215Z,21.40
2022-10-23T16:46:14.570Z,15.30
2022-10-23T16:48:42.247Z,17.80
2022-10-23T16:51:12.534Z,16.90
2022-10-23T16:53:40.077Z,21.97
2022-10-23T16:56:09.206Z,31.87
2022-10-23T16:58:38.292Z,31.90
2022-10-23T17:01:09.797Z,32.07
2022-10-23T17:03:48.677Z,31.93
2022-10-23T17:06:18.908Z,35.73
2022-10-23T17:08:46.715Z,36.77
2022-10-23T17:11:19.286Z,38.13
2022-10-23T17:13:55.699Z,44.17
2022-10-23T17:16:35.139Z,42.27
2022-10-23T17:19:08.397Z,43.03
2022-10-23T17:21:40.773Z,43.53
2022-10-23T17:24:09.836Z,45.23
2022-10-23T17:26:37.929Z,40.93
2022-10-23T17:29:08.922Z,38.47
2022-10-23T17:31:41.731Z,37.40
2022-10-23T17:34:12.022Z,34.07
2022-10-23T17:36:43.334Z,36.93
2022-10-23T17:39:56.427Z,38.30
2022-10-23T17:45:52.435Z,41.47
2022-10-23T17:49:19.778Z,41.33
2022-10-23T17:56:33.429Z,37.93
2022-10-23T18:05:52.627Z,62.37
2022-10-23T18:10:41.869Z,68.20
2022-10-23T18:12:09.105Z,67.27
2022-10-23T18:14:38.841Z,72.67
2022-10-23T18:17:06.514Z,67.47
2022-10-23T18:19:34.293Z,66.97
2022-10-23T18:22:01.748Z,65.23
2022-10-23T18:24:31.896Z,61.47
2022-10-23T18:26:59.460Z,58.53
2022-10-23T18:33:47.141Z,55.07
2022-10-23T19:16:01.591Z,52.73
2022-10-23T19:23:49.080Z,51.00
2022-10-23T19:36:23.490Z,55.03
2022-10-23T19:48:09.355Z,50.67
2022-10-23T19:54:27.232Z,45.67
2022-10-23T19:57:07.454Z,48.77
2022-10-23T20:00:43.963Z,49.10
2022-10-23T20:03:55.945Z,46.37
2022-10-23T20:07:03.409Z,51.80
2022-10-23T20:10:12.648Z,45.67
2022-10-23T20:16:37.414Z,45.27
2022-10-23T20:19:30.829Z,73.67
2022-10-23T20:21:58.468Z,50.00
2022-10-23T20:24:28.970Z,48.13
2022-10-23T20:26:56.946Z,54.43
2022-10-23T20:29:25.132Z,46.83
2022-10-23T20:31:53.055Z,53.23
2022-10-23T20:34:23.962Z,50.60
2022-10-23T20:36:56.149Z,53.37
2022-10-23T20:39:29.869Z,55.57
2022-10-23T20:42:03.812Z,60.33
2022-10-23T20:44:31.801Z,68.33
2022-10-23T20:46:59.709Z,58.50
2022-10-23T20:49:28.567Z,55.53
2022-10-23T20:52:00.635Z,56.10
2022-10-23T20:54:31.999Z,68.97
2022-10-23T20:56:59.557Z,74.53
2022-10-23T20:59:33.966Z,62.47
2022-10-23T21:02:31.138Z,64.53
2022-10-23T21:05:09.062Z,63.20
2022-10-23T21:07:47.250Z,55.73
2022-10-23T21:10:33.140Z,51.17
2022-10-23T21:13:00.957Z,51.30
2022-10-23T21:18:57.937Z,55.43
2022-10-23T21:21:25.413Z,49.73
2022-10-23T21:23:59.749Z,52.43
2022-10-23T21:26:33.205Z,49.20
2022-10-23T21:29:17.895Z,49.80
2022-10-23T21:31:45.835Z,46.97
2022-10-23T21:34:19.138Z,43.97
2022-10-23T21:37:11.318Z,45.53
2022-10-23T21:40:07.256Z,41.27
2022-10-23T21:42:51.219Z,42.60
2022-10-23T21:45:18.841Z,43.63
2022-10-23T21:47:49.125Z,48.40
2022-10-23T21:50:16.907Z,44.57
2022-10-23T21:52:44.806Z,48.13
2022-10-23T21:55:12.750Z,46.87
2022-10-23T21:57:40.463Z,45.33
2022-10-23T22:00:13.665Z,41.30
2022-10-23T22:10:41.734Z,40.03
2022-10-23T22:13:32.593Z,41.47
2022-10-23T22:16:17.092Z,43.63
2022-10-23T22:19:22.311Z,39.93
2022-10-23T22:22:40.585Z,39.47
2022-10-23T22:25:34.913Z,37.90
2022-10-23T22:31:49.844Z,39.80
2022-10-23T22:34:47.745Z,37.17
2022-10-23T22:37:48.837Z,34.50
2022-10-23T22:44:33.547Z,34.97
2022-10-23T22:51:25.467Z,35.30
2022-10-23T22:54:44.842Z,34.37
2022-10-23T23:01:10.623Z,40.60
2022-10-23T23:03:43.993Z,37.63
2022-10-23T23:06:38.307Z,46.30
2022-10-23T23:09:06.237Z,42.70
2022-10-23T23:11:51.224Z,38.90
2022-10-23T23:14:24.806Z,37.78
2022-10-23T23:16:55.457Z,40.27
2022-10-23T23:19:23.421Z,38.73
2022-10-23T23:21:51.282Z,36.37
2022-10-23T23:24:21.252Z,33.50
2022-10-23T23:26:52.830Z,36.30
2022-10-23T23:29:39.561Z,36.83
2022-10-23T23:32:07.291Z,33.40
2022-10-23T23:34:36.420Z,33.63
2022-10-23T23:37:04.219Z,38.13
2022-10-23T23:39:36.745Z,37.30
2022-10-23T23:42:04.294Z,36.33
2022-10-23T23:44:31.825Z,49.03
2022-10-23T23:46:59.669Z,32.97
2022-10-23T23:49:27.694Z,38.90
2022-10-23T23:52:03.575Z,33.90
2022-10-23T23:54:38.900Z,31.10
2022-10-23T23:59:43.216Z,34.20
